createdAt,value
2022-11-19T00:00:03.674Z,98862.11
2022-11-19T00:10:10.308Z,98858.57
2022-11-19T00:20:17.604Z,98861.41
2022-11-19T00:30:46.472Z,98862.48
2022-11-19T00:40:49.060Z,98875.14
2022-11-19T00:50:54.694Z,98881.50
2022-11-19T01:01:00.430Z,98879.52
2022-11-19T01:11:11.463Z,98883.05
2022-11-19T01:21:18.323Z,98887.82
2022-11-19T01:31:26.343Z,98888.44
2022-11-19T01:41:33.915Z,98886.20
2022-11-19T01:51:43.501Z,98885.14
2022-11-19T02:01:49.313Z,98882.37
2022-11-19T02:12:15.888Z,98891.74
2022-11-19T02:22:44.795Z,98899.03
2022-11-19T02:33:08.984Z,98906.44
2022-11-19T02:43:18.385Z,98917.83
2022-11-19T02:53:24.555Z,98915.55
2022-11-19T03:03:49.508Z,98912.83
2022-11-19T03:14:18.539Z,98915.91
2022-11-19T03:24:29.845Z,98922.13
2022-11-19T03:34:37.217Z,98925.73
2022-11-19T03:44:48.836Z,98928.41
2022-11-19T03:54:54.611Z,98947.02
2022-11-19T04:04:58.705Z,98957.17
2022-11-19T04:15:04.570Z,98957.33
2022-11-19T04:25:11.611Z,98960.36
2022-11-19T04:35:21.485Z,98963.33
2022-11-19T04:45:27.060Z,98979.46
2022-11-19T04:55:32.568Z,98996.21
2022-11-19T05:05:38.237Z,99006.60
2022-11-19T05:15:43.777Z,99020.82
2022-11-19T05:25:49.429Z,99036.40
2022-11-19T05:35:53.563Z,99045.54
2022-11-19T05:46:02.004Z,99051.61
2022-11-19T05:56:08.181Z,99055.36
2022-11-19T06:06:13.757Z,99062.33
2022-11-19T06:16:19.521Z,99073.29
2022-11-19T06:26:24.522Z,99096.74
2022-11-19T06:36:35.963Z,99105.15
2022-11-19T06:46:44.845Z,99111.98
2022-11-19T06:56:50.573Z,99117.61
2022-11-19T07:06:54.771Z,99125.37
2022-11-19T07:17:00.444Z,99113.79
2022-11-19T07:27:06.102Z,99114.34
2022-11-19T07:37:11.758Z,99111.33
2022-11-19T07:47:17.316Z,99109.40
2022-11-19T07:57:29.719Z,99109.87
2022-11-19T08:07:37.855Z,99108.73
2022-11-19T08:18:00.819Z,99105.94
2022-11-19T08:28:06.765Z,99104.67
2022-11-19T08:38:12.770Z,99105.20
2022-11-19T08:48:18.319Z,99113.27
2022-11-19T08:58:24.328Z,99116.39
2022-11-19T09:08:29.955Z,99123.59
2022-11-19T09:18:39.015Z,99122.02
2022-11-19T09:28:45.249Z,99131.31
2022-11-19T09:38:51.322Z,99146.05
2022-11-19T09:49:02.069Z,99148.60
2022-11-19T09:59:27.099Z,99155.91
2022-11-19T10:09:43.588Z,99150.25
2022-11-19T10:20:04.832Z,99147.38
2022-11-19T10:30:17.461Z,99153.05
2022-11-19T10:40:26.133Z,99153.45
2022-11-19T10:50:31.799Z,99151.86
2022-11-19T11:00:39.178Z,99149.54
2022-11-19T11:10:47.206Z,99149.88
2022-11-19T11:20:53.712Z,99147.89
2022-11-19T11:30:58.738Z,99143.70
2022-11-19T11:51:39.564Z,99129.96
2022-11-19T12:01:55.787Z,99139.05
2022-11-19T12:12:08.977Z,99144.90
2022-11-19T12:22:24.133Z,99149.99
2022-11-19T12:32:51.861Z,99151.09
2022-11-19T12:43:04.868Z,99159.59
2022-11-19T12:53:34.529Z,99168.36
2022-11-19T13:04:00.745Z,99157.40
2022-11-19T13:14:13.699Z,99145.59
2022-11-19T13:24:30.328Z,99149.93
2022-11-19T13:34:42.010Z,99142.36
2022-11-19T13:44:47.816Z,99136.55
2022-11-19T13:54:53.937Z,99144.64
2022-11-19T14:05:38.963Z,99160.70
2022-11-19T14:16:16.230Z,99169.61
2022-11-19T14:26:52.866Z,99159.72
2022-11-19T14:37:01.807Z,99165.81
2022-11-19T14:47:35.226Z,99175.81
2022-11-19T14:57:43.603Z,99188.73
2022-11-19T15:07:56.131Z,99191.16
2022-11-19T15:18:25.440Z,99176.56
2022-11-19T15:28:43.458Z,99165.13
2022-11-19T15:38:55.548Z,99171.98
2022-11-19T15:49:07.695Z,99173.91
2022-11-19T15:59:16.572Z,99172.66
2022-11-19T16:09:25.958Z,99148.48
2022-11-19T16:19:31.758Z,99146.24
2022-11-19T16:29:41.226Z,99164.93
2022-11-19T16:39:52.634Z,99177.84
2022-11-19T16:50:04.876Z,99189.61
2022-11-19T17:00:19.408Z,99182.70
2022-11-19T17:10:32.115Z,99176.81
2022-11-19T17:21:04.994Z,99187.81
2022-11-19T17:31:19.018Z,99208.31
2022-11-19T17:41:44.901Z,99208.80
2022-11-19T17:51:50.822Z,99211.92
2022-11-19T18:01:57.465Z,99224.93
2022-11-19T18:12:03.676Z,99232.54
2022-11-19T18:22:14.293Z,99228.52
2022-11-19T18:32:20.374Z,99223.61
2022-11-19T18:42:27.251Z,99217.54
2022-11-19T18:52:33.374Z,99223.29
2022-11-19T19:02:39.393Z,99226.83
2022-11-19T19:12:43.636Z,99236.00
2022-11-19T19:22:49.396Z,99240.20
2022-11-19T19:32:55.171Z,99245.45
2022-11-19T19:43:03.286Z,99249.50
2022-11-19T19:53:10.543Z,99249.83
2022-11-19T20:03:17.222Z,99242.58
2022-11-19T20:13:28.694Z,99236.73
2022-11-19T20:23:35.056Z,99235.09
2022-11-19T20:33:42.640Z,99229.38
2022-11-19T20:44:06.792Z,99236.96
2022-11-19T20:54:13.090Z,99235.13
2022-11-19T21:04:18.966Z,99238.02
2022-11-19T21:14:23.160Z,99249.00
2022-11-19T21:24:28.817Z,99258.02
2022-11-19T21:34:34.519Z,99256.09
2022-11-19T21:44:40.226Z,99248.77
2022-11-19T21:54:46.059Z,99249.54
2022-11-19T22:04:51.940Z,99252.21
2022-11-19T22:14:56.137Z,99248.14
2022-11-19T22:25:01.795Z,99237.01
2022-11-19T22:35:08.818Z,99239.80
2022-11-19T22:45:14.891Z,99232.71
2022-11-19T22:55:21.121Z,99232.61
2022-11-19T23:05:25.265Z,99231.21
2022-11-19T23:15:31.024Z,99227.27
2022-11-19T23:25:36.696Z,99223.86
2022-11-19T23:35:42.471Z,99222.84
2022-11-19T23:45:48.122Z,99220.77
2022-11-19T23:55:53.916Z,99219.23
